sensor_id;sensor_type;location;lat;lon;timestamp;temperature;humidity
1716;DHT22;855;48.824;9.220;2023-02-28T00:01:29;0.60;63.90
1716;DHT22;855;48.824;9.220;2023-02-28T00:03:57;0.60;63.90
1716;DHT22;855;48.824;9.220;2023-02-28T00:06:25;0.70;64.20
1716;DHT22;855;48.824;9.220;2023-02-28T00:08:52;0.80;64.00
1716;DHT22;855;48.824;9.220;2023-02-28T00:11:19;0.80;64.20
1716;DHT22;855;48.824;9.220;2023-02-28T00:13:46;0.90;64.40
1716;DHT22;855;48.824;9.220;2023-02-28T00:16:15;0.90;64.70
1716;DHT22;855;48.824;9.220;2023-02-28T00:18:43;0.90;64.80
1716;DHT22;855;48.824;9.220;2023-02-28T00:21:10;0.80;65.30
1716;DHT22;855;48.824;9.220;2023-02-28T00:23:38;0.80;65.90
1716;DHT22;855;48.824;9.220;2023-02-28T00:26:05;0.80;65.90
1716;DHT22;855;48.824;9.220;2023-02-28T00:28:32;0.80;65.90
1716;DHT22;855;48.824;9.220;2023-02-28T00:30:58;0.80;65.90
1716;DHT22;855;48.824;9.220;2023-02-28T00:33:26;0.80;65.90
1716;DHT22;855;48.824;9.220;2023-02-28T00:36:02;0.70;65.90
1716;DHT22;855;48.824;9.220;2023-02-28T00:38:29;0.60;66.30
1716;DHT22;855;48.824;9.220;2023-02-28T00:40:57;0.60;66.30
1716;DHT22;855;48.824;9.220;2023-02-28T00:43:30;0.50;66.70
1716;DHT22;855;48.824;9.220;2023-02-28T00:45:57;0.50;66.90
1716;DHT22;855;48.824;9.220;2023-02-28T00:48:24;0.50;66.90
1716;DHT22;855;48.824;9.220;2023-02-28T00:50:50;0.50;67.20
1716;DHT22;855;48.824;9.220;2023-02-28T00:53:17;0.50;67.30
1716;DHT22;855;48.824;9.220;2023-02-28T00:55:44;0.40;67.50
1716;DHT22;855;48.824;9.220;2023-02-28T00:58:12;0.40;67.70
1716;DHT22;855;48.824;9.220;2023-02-28T01:00:39;0.50;67.70
1716;DHT22;855;48.824;9.220;2023-02-28T01:03:06;0.50;67.90
1716;DHT22;855;48.824;9.220;2023-02-28T01:05:32;0.50;67.90
1716;DHT22;855;48.824;9.220;2023-02-28T01:07:59;0.50;67.90
1716;DHT22;855;48.824;9.220;2023-02-28T01:10:27;0.60;67.70
1716;DHT22;855;48.824;9.220;2023-02-28T01:12:56;0.50;68.10
1716;DHT22;855;48.824;9.220;2023-02-28T01:15:25;0.40;68.80
1716;DHT22;855;48.824;9.220;2023-02-28T01:17:51;0.50;68.90
1716;DHT22;855;48.824;9.220;2023-02-28T01:20:18;0.40;69.20
1716;DHT22;855;48.824;9.220;2023-02-28T01:22:45;0.40;69.60
1716;DHT22;855;48.824;9.220;2023-02-28T01:25:13;0.40;69.70
1716;DHT22;855;48.824;9.220;2023-02-28T01:27:39;0.40;70.40
1716;DHT22;855;48.824;9.220;2023-02-28T01:30:10;0.40;70.60
1716;DHT22;855;48.824;9.220;2023-02-28T01:32:38;0.40;70.80
1716;DHT22;855;48.824;9.220;2023-02-28T01:35:06;0.30;70.90
1716;DHT22;855;48.824;9.220;2023-02-28T01:37:33;0.30;71.20
1716;DHT22;855;48.824;9.220;2023-02-28T01:40:00;0.20;71.20
1716;DHT22;855;48.824;9.220;2023-02-28T01:42:27;0.20;71.30
1716;DHT22;855;48.824;9.220;2023-02-28T01:44:57;0.20;71.60
1716;DHT22;855;48.824;9.220;2023-02-28T01:47:27;0.20;71.70
1716;DHT22;855;48.824;9.220;2023-02-28T01:49:57;0.20;71.90
1716;DHT22;855;48.824;9.220;2023-02-28T01:52:24;0.10;71.90
1716;DHT22;855;48.824;9.220;2023-02-28T01:54:55;0.10;71.90
1716;DHT22;855;48.824;9.220;2023-02-28T01:57:25;0.20;71.90
1716;DHT22;855;48.824;9.220;2023-02-28T01:59:58;0.10;72.30
1716;DHT22;855;48.824;9.220;2023-02-28T02:02:27;0.10;72.60
1716;DHT22;855;48.824;9.220;2023-02-28T02:04:59;0.00;72.70
1716;DHT22;855;48.824;9.220;2023-02-28T02:07:30;0.00;73.00
1716;DHT22;855;48.824;9.220;2023-02-28T02:10:04;0.10;72.90
1716;DHT22;855;48.824;9.220;2023-02-28T02:12:42;0.20;72.70
1716;DHT22;855;48.824;9.220;2023-02-28T02:15:16;0.20;72.60
1716;DHT22;855;48.824;9.220;2023-02-28T02:17:45;0.20;72.60
1716;DHT22;855;48.824;9.220;2023-02-28T02:26:55;0.10;73.70
1716;DHT22;855;48.824;9.220;2023-02-28T02:30:08;0.10;74.50
1716;DHT22;855;48.824;9.220;2023-02-28T02:35:52;0.00;75.50
1716;DHT22;855;48.824;9.220;2023-02-28T02:38:29;-0.10;76.20
1716;DHT22;855;48.824;9.220;2023-02-28T02:41:04;-0.10;76.60
1716;DHT22;855;48.824;9.220;2023-02-28T02:43:38;-0.10;76.70
1716;DHT22;855;48.824;9.220;2023-02-28T02:46:09;-0.10;77.20
1716;DHT22;855;48.824;9.220;2023-02-28T02:48:39;-0.20;77.40
1716;DHT22;855;48.824;9.220;2023-02-28T02:51:13;-0.10;77.40
1716;DHT22;855;48.824;9.220;2023-02-28T02:53:44;-0.10;77.20
1716;DHT22;855;48.824;9.220;2023-02-28T02:56:12;0.00;77.10
1716;DHT22;855;48.824;9.220;2023-02-28T02:58:41;0.00;77.10
1716;DHT22;855;48.824;9.220;2023-02-28T03:01:12;0.00;76.80
1716;DHT22;855;48.824;9.220;2023-02-28T03:03:40;0.10;77.20
1716;DHT22;855;48.824;9.220;2023-02-28T03:06:08;0.00;77.00
1716;DHT22;855;48.824;9.220;2023-02-28T03:08:37;0.10;77.10
1716;DHT22;855;48.824;9.220;2023-02-28T03:11:06;0.10;77.10
1716;DHT22;855;48.824;9.220;2023-02-28T03:13:59;0.10;77.20
1716;DHT22;855;48.824;9.220;2023-02-28T03:16:34;0.10;77.10
1716;DHT22;855;48.824;9.220;2023-02-28T03:19:14;0.10;77.20
1716;DHT22;855;48.824;9.220;2023-02-28T03:21:56;0.00;77.50
1716;DHT22;855;48.824;9.220;2023-02-28T03:24:29;0.10;78.00
1716;DHT22;855;48.824;9.220;2023-02-28T03:27:05;0.10;77.90
1716;DHT22;855;48.824;9.220;2023-02-28T03:29:35;0.10;77.90
1716;DHT22;855;48.824;9.220;2023-02-28T03:32:08;0.20;77.90
1716;DHT22;855;48.824;9.220;2023-02-28T03:34:41;0.30;77.60
1716;DHT22;855;48.824;9.220;2023-02-28T03:37:16;0.30;77.90
1716;DHT22;855;48.824;9.220;2023-02-28T03:39:45;0.40;77.60
1716;DHT22;855;48.824;9.220;2023-02-28T03:42:16;0.40;77.20
1716;DHT22;855;48.824;9.220;2023-02-28T03:44:47;0.40;77.40
1716;DHT22;855;48.824;9.220;2023-02-28T03:47:19;0.30;77.10
1716;DHT22;855;48.824;9.220;2023-02-28T03:49:50;0.30;77.40
1716;DHT22;855;48.824;9.220;2023-02-28T03:52:23;0.50;77.80
1716;DHT22;855;48.824;9.220;2023-02-28T03:54:54;0.60;77.20
1716;DHT22;855;48.824;9.220;2023-02-28T03:57:27;0.60;76.70
1716;DHT22;855;48.824;9.220;2023-02-28T04:00:00;0.50;76.80
1716;DHT22;855;48.824;9.220;2023-02-28T04:02:29;0.60;77.10
1716;DHT22;855;48.824;9.220;2023-02-28T04:04:56;0.60;76.80
1716;DHT22;855;48.824;9.220;2023-02-28T04:07:29;0.60;76.80
1716;DHT22;855;48.824;9.220;2023-02-28T04:09:56;0.60;76.70
1716;DHT22;855;48.824;9.220;2023-02-28T04:12:23;0.50;77.00
1716;DHT22;855;48.824;9.220;2023-02-28T04:14:50;0.60;77.20
1716;DHT22;855;48.824;9.220;2023-02-28T04:17:17;0.60;77.00
1716;DHT22;855;48.824;9.220;2023-02-28T04:19:44;0.50;77.10
1716;DHT22;855;48.824;9.220;2023-02-28T04:22:11;0.50;77.10
1716;DHT22;855;48.824;9.220;2023-02-28T04:24:39;0.40;77.80
1716;DHT22;855;48.824;9.220;2023-02-28T04:27:08;0.50;77.80
1716;DHT22;855;48.824;9.220;2023-02-28T04:29:35;0.50;77.50
1716;DHT22;855;48.824;9.220;2023-02-28T04:32:02;0.50;77.60
1716;DHT22;855;48.824;9.220;2023-02-28T04:34:30;0.50;77.90
1716;DHT22;855;48.824;9.220;2023-02-28T04:36:58;0.50;78.20
1716;DHT22;855;48.824;9.220;2023-02-28T04:39:25;0.50;77.80
1716;DHT22;855;48.824;9.220;2023-02-28T04:41:54;0.60;77.80
1716;DHT22;855;48.824;9.220;2023-02-28T04:44:21;0.60;77.60
1716;DHT22;855;48.824;9.220;2023-02-28T04:46:48;0.60;77.60
1716;DHT22;855;48.824;9.220;2023-02-28T04:49:15;0.60;77.80
1716;DHT22;855;48.824;9.220;2023-02-28T04:51:42;0.60;77.50
1716;DHT22;855;48.824;9.220;2023-02-28T04:54:09;0.80;77.50
1716;DHT22;855;48.824;9.220;2023-02-28T04:56:36;0.80;77.00
1716;DHT22;855;48.824;9.220;2023-02-28T04:59:04;0.70;77.10
1716;DHT22;855;48.824;9.220;2023-02-28T05:01:33;0.70;77.10
1716;DHT22;855;48.824;9.220;2023-02-28T05:04:02;0.70;77.10
1716;DHT22;855;48.824;9.220;2023-02-28T05:06:31;0.70;77.40
1716;DHT22;855;48.824;9.220;2023-02-28T05:08:58;0.70;77.60
1716;DHT22;855;48.824;9.220;2023-02-28T05:11:27;0.80;77.80
1716;DHT22;855;48.824;9.220;2023-02-28T05:13:59;0.90;77.20
1716;DHT22;855;48.824;9.220;2023-02-28T05:16:27;0.90;76.70
1716;DHT22;855;48.824;9.220;2023-02-28T05:18:54;0.80;76.80
1716;DHT22;855;48.824;9.220;2023-02-28T05:21:26;0.80;77.20
1716;DHT22;855;48.824;9.220;2023-02-28T05:23:54;0.80;77.00
1716;DHT22;855;48.824;9.220;2023-02-28T05:26:21;0.70;77.50
1716;DHT22;855;48.824;9.220;2023-02-28T05:28:48;0.60;78.00
1716;DHT22;855;48.824;9.220;2023-02-28T05:31:15;0.60;78.20
1716;DHT22;855;48.824;9.220;2023-02-28T05:33:43;0.70;78.00
1716;DHT22;855;48.824;9.220;2023-02-28T05:36:10;0.70;78.00
1716;DHT22;855;48.824;9.220;2023-02-28T05:38:37;0.80;78.00
1716;DHT22;855;48.824;9.220;2023-02-28T05:41:07;0.90;77.60
1716;DHT22;855;48.824;9.220;2023-02-28T05:43:35;0.90;77.50
1716;DHT22;855;48.824;9.220;2023-02-28T05:46:03;0.80;77.40
1716;DHT22;855;48.824;9.220;2023-02-28T05:48:31;0.80;77.90
1716;DHT22;855;48.824;9.220;2023-02-28T05:50:59;0.90;77.90
1716;DHT22;855;48.824;9.220;2023-02-28T05:53:26;0.90;77.50
1716;DHT22;855;48.824;9.220;2023-02-28T05:55:53;0.90;77.40
1716;DHT22;855;48.824;9.220;2023-02-28T05:58:20;0.90;77.20
1716;DHT22;855;48.824;9.220;2023-02-28T06:00:46;1.00;77.00
1716;DHT22;855;48.824;9.220;2023-02-28T06:03:13;0.90;77.00
1716;DHT22;855;48.824;9.220;2023-02-28T06:05:40;0.90;77.00
1716;DHT22;855;48.824;9.220;2023-02-28T06:08:08;0.80;77.10
1716;DHT22;855;48.824;9.220;2023-02-28T06:10:35;0.80;77.40
1716;DHT22;855;48.824;9.220;2023-02-28T06:13:03;0.90;77.50
1716;DHT22;855;48.824;9.220;2023-02-28T06:15:30;0.90;76.80
1716;DHT22;855;48.824;9.220;2023-02-28T06:17:58;0.90;76.70
1716;DHT22;855;48.824;9.220;2023-02-28T06:20:26;0.90;76.80
1716;DHT22;855;48.824;9.220;2023-02-28T06:22:55;0.90;77.10
1716;DHT22;855;48.824;9.220;2023-02-28T06:25:25;0.90;76.70
1716;DHT22;855;48.824;9.220;2023-02-28T06:27:53;1.00;76.60
1716;DHT22;855;48.824;9.220;2023-02-28T06:30:20;1.10;76.30
1716;DHT22;855;48.824;9.220;2023-02-28T06:32:50;1.00;76.00
1716;DHT22;855;48.824;9.220;2023-02-28T06:35:17;0.80;76.70
1716;DHT22;855;48.824;9.220;2023-02-28T06:37:44;0.80;77.00
1716;DHT22;855;48.824;9.220;2023-02-28T06:40:13;0.70;77.60
1716;DHT22;855;48.824;9.220;2023-02-28T06:42:41;0.80;77.50
1716;DHT22;855;48.824;9.220;2023-02-28T06:45:08;0.70;77.40
1716;DHT22;855;48.824;9.220;2023-02-28T06:47:35;0.80;77.50
1716;DHT22;855;48.824;9.220;2023-02-28T06:50:03;0.80;77.20
1716;DHT22;855;48.824;9.220;2023-02-28T06:52:30;0.90;77.40
1716;DHT22;855;48.824;9.220;2023-02-28T06:54:57;0.90;77.00
1716;DHT22;855;48.824;9.220;2023-02-28T06:57:27;1.00;76.40
1716;DHT22;855;48.824;9.220;2023-02-28T06:59:57;1.00;76.30
1716;DHT22;855;48.824;9.220;2023-02-28T07:02:24;1.10;76.20
1716;DHT22;855;48.824;9.220;2023-02-28T07:04:51;1.10;76.20
1716;DHT22;855;48.824;9.220;2023-02-28T07:07:18;1.00;76.20
1716;DHT22;855;48.824;9.220;2023-02-28T07:09:45;1.00;76.20
1716;DHT22;855;48.824;9.220;2023-02-28T07:12:12;1.00;76.20
1716;DHT22;855;48.824;9.220;2023-02-28T07:14:39;0.80;76.70
1716;DHT22;855;48.824;9.220;2023-02-28T07:17:08;0.80;77.10
1716;DHT22;855;48.824;9.220;2023-02-28T07:19:37;0.80;76.80
1716;DHT22;855;48.824;9.220;2023-02-28T07:22:04;0.80;77.40
1716;DHT22;855;48.824;9.220;2023-02-28T07:24:31;0.90;77.40
1716;DHT22;855;48.824;9.220;2023-02-28T07:26:58;1.00;76.70
1716;DHT22;855;48.824;9.220;2023-02-28T07:29:26;1.00;76.70
1716;DHT22;855;48.824;9.220;2023-02-28T07:31:53;1.10;76.30
1716;DHT22;855;48.824;9.220;2023-02-28T07:34:21;1.00;76.20
1716;DHT22;855;48.824;9.220;2023-02-28T07:36:48;1.00;75.90
1716;DHT22;855;48.824;9.220;2023-02-28T07:39:19;1.00;75.90
1716;DHT22;855;48.824;9.220;2023-02-28T07:41:46;1.00;76.20
1716;DHT22;855;48.824;9.220;2023-02-28T07:44:13;1.10;76.40
1716;DHT22;855;48.824;9.220;2023-02-28T07:46:40;1.20;75.90
1716;DHT22;855;48.824;9.220;2023-02-28T07:49:07;1.10;75.60
1716;DHT22;855;48.824;9.220;2023-02-28T07:51:35;1.20;75.80
1716;DHT22;855;48.824;9.220;2023-02-28T07:54:02;1.00;75.40
1716;DHT22;855;48.824;9.220;2023-02-28T07:56:29;1.00;76.00
1716;DHT22;855;48.824;9.220;2023-02-28T07:58:56;0.90;76.60
1716;DHT22;855;48.824;9.220;2023-02-28T08:01:23;0.80;76.80
1716;DHT22;855;48.824;9.220;2023-02-28T08:03:50;1.00;76.70
1716;DHT22;855;48.824;9.220;2023-02-28T08:06:18;1.00;76.00
1716;DHT22;855;48.824;9.220;2023-02-28T08:08:48;1.10;75.90
1716;DHT22;855;48.824;9.220;2023-02-28T08:11:15;1.30;75.60
1716;DHT22;855;48.824;9.220;2023-02-28T08:13:42;1.30;75.40
1716;DHT22;855;48.824;9.220;2023-02-28T08:16:09;1.50;75.10
1716;DHT22;855;48.824;9.220;2023-02-28T08:18:36;1.60;74.60
1716;DHT22;855;48.824;9.220;2023-02-28T08:21:06;1.30;74.30
1716;DHT22;855;48.824;9.220;2023-02-28T08:23:33;1.30;74.60
1716;DHT22;855;48.824;9.220;2023-02-28T08:26:02;1.30;75.30
1716;DHT22;855;48.824;9.220;2023-02-28T08:28:28;1.40;75.80
1716;DHT22;855;48.824;9.220;2023-02-28T08:30:55;1.50;74.90
1716;DHT22;855;48.824;9.220;2023-02-28T08:33:23;1.60;73.70
1716;DHT22;855;48.824;9.220;2023-02-28T08:35:52;1.60;73.50
1716;DHT22;855;48.824;9.220;2023-02-28T08:38:20;1.60;73.30
1716;DHT22;855;48.824;9.220;2023-02-28T08:40:47;1.70;73.10
1716;DHT22;855;48.824;9.220;2023-02-28T08:43:15;1.70;73.10
1716;DHT22;855;48.824;9.220;2023-02-28T08:45:42;1.50;73.30
1716;DHT22;855;48.824;9.220;2023-02-28T08:48:09;1.40;74.60
1716;DHT22;855;48.824;9.220;2023-02-28T08:50:36;1.60;74.20
1716;DHT22;855;48.824;9.220;2023-02-28T08:53:03;1.60;73.00
1716;DHT22;855;48.824;9.220;2023-02-28T08:55:29;1.60;72.60
1716;DHT22;855;48.824;9.220;2023-02-28T08:57:56;1.50;72.10
1716;DHT22;855;48.824;9.220;2023-02-28T09:00:25;1.30;71.40
1716;DHT22;855;48.824;9.220;2023-02-28T09:02:52;1.40;72.10
1716;DHT22;855;48.824;9.220;2023-02-28T09:05:20;1.30;71.60
1716;DHT22;855;48.824;9.220;2023-02-28T09:07:46;1.40;72.10
1716;DHT22;855;48.824;9.220;2023-02-28T09:10:13;1.50;71.00
1716;DHT22;855;48.824;9.220;2023-02-28T09:12:40;1.60;70.80
1716;DHT22;855;48.824;9.220;2023-02-28T09:15:08;1.80;71.00
1716;DHT22;855;48.824;9.220;2023-02-28T09:17:36;2.00;70.40
1716;DHT22;855;48.824;9.220;2023-02-28T09:20:04;1.90;69.40
1716;DHT22;855;48.824;9.220;2023-02-28T09:22:31;2.00;69.00
1716;DHT22;855;48.824;9.220;2023-02-28T09:24:58;2.10;68.50
1716;DHT22;855;48.824;9.220;2023-02-28T09:27:24;2.10;68.50
1716;DHT22;855;48.824;9.220;2023-02-28T09:29:51;2.20;68.50
1716;DHT22;855;48.824;9.220;2023-02-28T09:32:18;2.10;66.80
1716;DHT22;855;48.824;9.220;2023-02-28T09:34:46;2.10;67.60
1716;DHT22;855;48.824;9.220;2023-02-28T09:37:13;2.30;67.30
1716;DHT22;855;48.824;9.220;2023-02-28T09:39:40;2.20;66.40
1716;DHT22;855;48.824;9.220;2023-02-28T09:42:17;2.10;66.50
1716;DHT22;855;48.824;9.220;2023-02-28T09:44:47;2.10;67.10
1716;DHT22;855;48.824;9.220;2023-02-28T09:47:24;2.20;67.10
1716;DHT22;855;48.824;9.220;2023-02-28T09:49:53;2.10;67.20
1716;DHT22;855;48.824;9.220;2023-02-28T09:52:26;2.00;67.10
1716;DHT22;855;48.824;9.220;2023-02-28T09:54:54;2.10;67.10
1716;DHT22;855;48.824;9.220;2023-02-28T09:57:29;2.10;66.10
1716;DHT22;855;48.824;9.220;2023-02-28T10:00:05;2.30;66.70
1716;DHT22;855;48.824;9.220;2023-02-28T10:05:47;2.30;65.60
1716;DHT22;855;48.824;9.220;2023-02-28T10:08:19;2.30;66.00
1716;DHT22;855;48.824;9.220;2023-02-28T10:10:51;2.50;65.90
1716;DHT22;855;48.824;9.220;2023-02-28T10:13:25;2.70;65.30
1716;DHT22;855;48.824;9.220;2023-02-28T10:15:56;2.90;64.80
1716;DHT22;855;48.824;9.220;2023-02-28T10:18:28;3.10;64.50
1716;DHT22;855;48.824;9.220;2023-02-28T10:20:57;2.90;64.50
1716;DHT22;855;48.824;9.220;2023-02-28T10:23:28;2.70;64.30
1716;DHT22;855;48.824;9.220;2023-02-28T10:26:00;2.80;65.10
1716;DHT22;855;48.824;9.220;2023-02-28T10:28:29;2.90;64.80
1716;DHT22;855;48.824;9.220;2023-02-28T10:30:57;3.10;64.30
1716;DHT22;855;48.824;9.220;2023-02-28T10:33:27;2.90;64.20
1716;DHT22;855;48.824;9.220;2023-02-28T10:35:56;2.80;64.80
1716;DHT22;855;48.824;9.220;2023-02-28T10:38:25;2.90;64.90
1716;DHT22;855;48.824;9.220;2023-02-28T10:41:04;2.90;64.80
1716;DHT22;855;48.824;9.220;2023-02-28T10:43:31;3.20;64.50
1716;DHT22;855;48.824;9.220;2023-02-28T10:46:00;3.30;62.80
1716;DHT22;855;48.824;9.220;2023-02-28T10:48:34;3.30;63.20
1716;DHT22;855;48.824;9.220;2023-02-28T10:51:05;3.50;62.80
1716;DHT22;855;48.824;9.220;2023-02-28T10:53:47;3.30;62.80
1716;DHT22;855;48.824;9.220;2023-02-28T10:56:17;3.40;63.90
1716;DHT22;855;48.824;9.220;2023-02-28T10:58:56;3.60;62.70
1716;DHT22;855;48.824;9.220;2023-02-28T11:01:26;3.70;62.80
1716;DHT22;855;48.824;9.220;2023-02-28T11:04:00;3.90;62.20
1716;DHT22;855;48.824;9.220;2023-02-28T11:06:30;4.20;61.20
1716;DHT22;855;48.824;9.220;2023-02-28T11:08:58;4.20;60.10
1716;DHT22;855;48.824;9.220;2023-02-28T11:11:28;4.20;60.10
1716;DHT22;855;48.824;9.220;2023-02-28T11:14:02;4.40;60.30
1716;DHT22;855;48.824;9.220;2023-02-28T11:16:33;4.70;59.40
1716;DHT22;855;48.824;9.220;2023-02-28T11:19:02;4.90;58.80
1716;DHT22;855;48.824;9.220;2023-02-28T11:21:32;5.10;58.50
1716;DHT22;855;48.824;9.220;2023-02-28T11:24:03;5.30;58.70
1716;DHT22;855;48.824;9.220;2023-02-28T11:26:40;5.50;57.80
1716;DHT22;855;48.824;9.220;2023-02-28T11:29:18;5.60;57.00
1716;DHT22;855;48.824;9.220;2023-02-28T11:32:12;5.60;56.80
1716;DHT22;855;48.824;9.220;2023-02-28T11:34:41;5.90;57.30
1716;DHT22;855;48.824;9.220;2023-02-28T11:37:13;6.10;55.50
1716;DHT22;855;48.824;9.220;2023-02-28T11:39:41;6.00;55.30
1716;DHT22;855;48.824;9.220;2023-02-28T11:42:23;5.80;56.40
1716;DHT22;855;48.824;9.220;2023-02-28T11:45:07;6.10;56.30
1716;DHT22;855;48.824;9.220;2023-02-28T11:47:44;6.20;55.70
1716;DHT22;855;48.824;9.220;2023-02-28T11:50:23;6.30;55.20
1716;DHT22;855;48.824;9.220;2023-02-28T11:52:56;6.10;54.50
1716;DHT22;855;48.824;9.220;2023-02-28T11:55:26;5.90;56.20
1716;DHT22;855;48.824;9.220;2023-02-28T11:58:17;5.70;56.40
1716;DHT22;855;48.824;9.220;2023-02-28T12:01:06;5.90;55.80
1716;DHT22;855;48.824;9.220;2023-02-28T12:03:43;5.90;55.50
1716;DHT22;855;48.824;9.220;2023-02-28T12:06:18;6.10;55.40
1716;DHT22;855;48.824;9.220;2023-02-28T12:09:02;5.80;55.90
1716;DHT22;855;48.824;9.220;2023-02-28T12:11:35;5.90;55.50
1716;DHT22;855;48.824;9.220;2023-02-28T12:14:38;6.00;55.80
1716;DHT22;855;48.824;9.220;2023-02-28T12:17:18;5.80;56.40
1716;DHT22;855;48.824;9.220;2023-02-28T12:19:55;6.10;55.50
1716;DHT22;855;48.824;9.220;2023-02-28T12:22:29;6.10;55.00
1716;DHT22;855;48.824;9.220;2023-02-28T12:27:54;6.10;56.00
1716;DHT22;855;48.824;9.220;2023-02-28T12:30:23;5.90;54.70
1716;DHT22;855;48.824;9.220;2023-02-28T12:32:54;5.70;55.50
1716;DHT22;855;48.824;9.220;2023-02-28T12:35:25;5.80;56.00
1716;DHT22;855;48.824;9.220;2023-02-28T12:37:56;5.70;56.30
1716;DHT22;855;48.824;9.220;2023-02-28T12:40:41;5.90;55.80
1716;DHT22;855;48.824;9.220;2023-02-28T12:43:11;6.00;54.70
1716;DHT22;855;48.824;9.220;2023-02-28T12:45:42;5.80;54.40
1716;DHT22;855;48.824;9.220;2023-02-28T12:48:14;5.70;55.30
1716;DHT22;855;48.824;9.220;2023-02-28T12:50:42;5.70;55.30
1716;DHT22;855;48.824;9.220;2023-02-28T12:53:17;5.70;55.80
1716;DHT22;855;48.824;9.220;2023-02-28T12:55:55;5.80;55.70
1716;DHT22;855;48.824;9.220;2023-02-28T12:58:30;5.80;54.50
1716;DHT22;855;48.824;9.220;2023-02-28T13:01:25;5.80;55.50
1716;DHT22;855;48.824;9.220;2023-02-28T13:04:19;5.90;55.50
1716;DHT22;855;48.824;9.220;2023-02-28T13:07:08;6.10;54.80
1716;DHT22;855;48.824;9.220;2023-02-28T13:09:38;6.20;54.40
1716;DHT22;855;48.824;9.220;2023-02-28T13:12:15;6.10;54.50
1716;DHT22;855;48.824;9.220;2023-02-28T13:14:42;6.30;54.30
1716;DHT22;855;48.824;9.220;2023-02-28T13:17:14;6.30;53.70
1716;DHT22;855;48.824;9.220;2023-02-28T13:19:46;6.40;53.60
1716;DHT22;855;48.824;9.220;2023-02-28T13:22:39;6.40;53.40
1716;DHT22;855;48.824;9.220;2023-02-28T13:31:21;6.60;52.40
1716;DHT22;855;48.824;9.220;2023-02-28T13:34:12;6.60;53.60
1716;DHT22;855;48.824;9.220;2023-02-28T13:36:39;6.70;52.30
1716;DHT22;855;48.824;9.220;2023-02-28T13:42:31;6.50;53.10
1716;DHT22;855;48.824;9.220;2023-02-28T13:45:22;6.50;53.20
1716;DHT22;855;48.824;9.220;2023-02-28T13:47:56;6.60;53.10
1716;DHT22;855;48.824;9.220;2023-02-28T13:50:30;6.60;52.90
1716;DHT22;855;48.824;9.220;2023-02-28T13:55:52;6.60;52.20
1716;DHT22;855;48.824;9.220;2023-02-28T13:58:35;6.60;52.40
1716;DHT22;855;48.824;9.220;2023-02-28T14:01:25;6.70;52.40
1716;DHT22;855;48.824;9.220;2023-02-28T14:04:11;6.70;52.60
1716;DHT22;855;48.824;9.220;2023-02-28T14:06:47;6.70;51.80
1716;DHT22;855;48.824;9.220;2023-02-28T14:09:23;6.70;51.90
1716;DHT22;855;48.824;9.220;2023-02-28T14:11:52;6.60;52.10
1716;DHT22;855;48.824;9.220;2023-02-28T14:17:19;6.80;53.20
1716;DHT22;855;48.824;9.220;2023-02-28T14:19:47;6.90;52.80
1716;DHT22;855;48.824;9.220;2023-02-28T14:22:32;7.10;52.30
1716;DHT22;855;48.824;9.220;2023-02-28T14:25:09;7.10;51.90
1716;DHT22;855;48.824;9.220;2023-02-28T14:27:45;7.00;51.30
1716;DHT22;855;48.824;9.220;2023-02-28T14:33:23;6.80;51.10
1716;DHT22;855;48.824;9.220;2023-02-28T14:36:12;6.90;51.70
1716;DHT22;855;48.824;9.220;2023-02-28T14:38:44;7.10;51.60
1716;DHT22;855;48.824;9.220;2023-02-28T14:41:18;6.90;51.60
1716;DHT22;855;48.824;9.220;2023-02-28T14:43:52;6.80;52.40
1716;DHT22;855;48.824;9.220;2023-02-28T14:46:19;6.80;53.10
1716;DHT22;855;48.824;9.220;2023-02-28T14:48:46;6.80;52.30
1716;DHT22;855;48.824;9.220;2023-02-28T14:51:20;6.80;51.90
1716;DHT22;855;48.824;9.220;2023-02-28T14:53:50;7.00;52.20
1716;DHT22;855;48.824;9.220;2023-02-28T14:56:22;6.90;52.70
1716;DHT22;855;48.824;9.220;2023-02-28T14:58:55;7.10;52.40
1716;DHT22;855;48.824;9.220;2023-02-28T15:01:26;7.00;52.60
1716;DHT22;855;48.824;9.220;2023-02-28T15:04:01;7.10;52.40
1716;DHT22;855;48.824;9.220;2023-02-28T15:06:30;6.90;52.20
1716;DHT22;855;48.824;9.220;2023-02-28T15:09:08;6.80;52.80
1716;DHT22;855;48.824;9.220;2023-02-28T15:11:37;6.80;52.30
1716;DHT22;855;48.824;9.220;2023-02-28T15:14:05;6.90;52.60
1716;DHT22;855;48.824;9.220;2023-02-28T15:16:35;6.80;52.90
1716;DHT22;855;48.824;9.220;2023-02-28T15:19:07;7.00;53.10
1716;DHT22;855;48.824;9.220;2023-02-28T15:21:41;7.10;52.60
1716;DHT22;855;48.824;9.220;2023-02-28T15:24:13;7.00;52.80
1716;DHT22;855;48.824;9.220;2023-02-28T15:26:43;7.00;52.90
1716;DHT22;855;48.824;9.220;2023-02-28T15:29:20;7.10;52.40
1716;DHT22;855;48.824;9.220;2023-02-28T15:31:49;7.00;52.60
1716;DHT22;855;48.824;9.220;2023-02-28T15:34:19;6.90;53.10
1716;DHT22;855;48.824;9.220;2023-02-28T15:36:48;6.80;53.10
1716;DHT22;855;48.824;9.220;2023-02-28T15:39:20;6.90;52.90
1716;DHT22;855;48.824;9.220;2023-02-28T15:41:47;7.00;52.90
1716;DHT22;855;48.824;9.220;2023-02-28T15:44:25;7.10;53.10
1716;DHT22;855;48.824;9.220;2023-02-28T15:46:58;6.90;53.30
1716;DHT22;855;48.824;9.220;2023-02-28T15:49:27;6.80;53.90
1716;DHT22;855;48.824;9.220;2023-02-28T15:51:59;6.70;54.20
1716;DHT22;855;48.824;9.220;2023-02-28T15:54:29;6.60;53.90
1716;DHT22;855;48.824;9.220;2023-02-28T15:57:04;6.50;54.00
1716;DHT22;855;48.824;9.220;2023-02-28T15:59:35;6.50;54.40
1716;DHT22;855;48.824;9.220;2023-02-28T16:02:15;6.50;54.70
1716;DHT22;855;48.824;9.220;2023-02-28T16:04:57;6.50;54.90
1716;DHT22;855;48.824;9.220;2023-02-28T16:07:26;6.50;55.00
1716;DHT22;855;48.824;9.220;2023-02-28T16:09:53;6.40;54.90
1716;DHT22;855;48.824;9.220;2023-02-28T16:12:21;6.30;55.70
1716;DHT22;855;48.824;9.220;2023-02-28T16:14:52;6.30;55.80
1716;DHT22;855;48.824;9.220;2023-02-28T16:17:22;6.30;55.40
1716;DHT22;855;48.824;9.220;2023-02-28T16:19:49;6.40;55.70
1716;DHT22;855;48.824;9.220;2023-02-28T16:22:16;6.40;55.50
1716;DHT22;855;48.824;9.220;2023-02-28T16:24:44;6.40;55.80
1716;DHT22;855;48.824;9.220;2023-02-28T16:27:17;6.40;55.40
1716;DHT22;855;48.824;9.220;2023-02-28T16:29:45;6.40;55.40
1716;DHT22;855;48.824;9.220;2023-02-28T16:32:14;6.30;55.50
1716;DHT22;855;48.824;9.220;2023-02-28T16:34:42;6.30;55.70
1716;DHT22;855;48.824;9.220;2023-02-28T16:37:13;6.30;55.70
1716;DHT22;855;48.824;9.220;2023-02-28T16:39:41;6.40;55.40
1716;DHT22;855;48.824;9.220;2023-02-28T16:42:15;6.30;55.20
1716;DHT22;855;48.824;9.220;2023-02-28T16:44:42;6.30;55.80
1716;DHT22;855;48.824;9.220;2023-02-28T16:47:10;6.20;56.20
1716;DHT22;855;48.824;9.220;2023-02-28T16:49:38;6.20;56.20
1716;DHT22;855;48.824;9.220;2023-02-28T16:52:07;6.10;56.20
1716;DHT22;855;48.824;9.220;2023-02-28T16:54:34;6.10;56.40
1716;DHT22;855;48.824;9.220;2023-02-28T16:57:01;6.10;56.20
1716;DHT22;855;48.824;9.220;2023-02-28T16:59:29;6.00;56.30
1716;DHT22;855;48.824;9.220;2023-02-28T17:01:56;6.00;56.50
1716;DHT22;855;48.824;9.220;2023-02-28T17:04:23;6.10;56.50
1716;DHT22;855;48.824;9.220;2023-02-28T17:06:50;6.00;56.70
1716;DHT22;855;48.824;9.220;2023-02-28T17:09:19;6.00;56.70
1716;DHT22;855;48.824;9.220;2023-02-28T17:11:46;6.00;56.70
1716;DHT22;855;48.824;9.220;2023-02-28T17:14:14;5.90;57.20
1716;DHT22;855;48.824;9.220;2023-02-28T17:16:43;5.90;57.40
1716;DHT22;855;48.824;9.220;2023-02-28T17:19:12;5.90;57.50
1716;DHT22;855;48.824;9.220;2023-02-28T17:21:40;6.00;57.50
1716;DHT22;855;48.824;9.220;2023-02-28T17:24:08;5.90;57.80
1716;DHT22;855;48.824;9.220;2023-02-28T17:26:38;5.80;58.00
1716;DHT22;855;48.824;9.220;2023-02-28T17:29:09;5.60;58.50
1716;DHT22;855;48.824;9.220;2023-02-28T17:31:37;5.70;58.70